Terminal Aerodrome Forecast
Issued by NWS

Home | Current Version | Previous Version | Text Only | Print | Product List | Glossary On
Versions: 1 2 3 4 5 6 7 8 9 10 11 12
000
FTUS45 KGJT 210520
TAFVEL
TAF
KVEL 210520Z 2106/2206 30005KT P6SM FEW150 SCT250
     FM211800 19004KT P6SM FEW120 SCT250
     FM212000 26006KT P6SM FEW110 SCT250
     FM212100 32005KT P6SM FEW120 SCT200=

USA.gov is the U.S. government's official web portal to all federal, state and local government web resources and services.